Kezdőlap
METAR-TAF:

METAR-TAF

Repülőterek :

Burgos, Spanyolország

földrajzi szélesség: 42-22N, földrajzi hosszúság: 003-38W, magasság: 894 m

Jelenlegi meteorológiai megfigyelések

A jelentés 34 perccel ezelõtt készült, 20:00 UTC
Északkeleti szél 5 kt
Hőmérséklet 6°C
Páratartalom 61%
Légköri nyomás 1035 hPa
Látótávolság 10 km, vagy több
felhőtlen 1500 m magasságban, és nincs gomolyfelhõ

METAR: LEBG 222000Z AUTO 04005KT CAVOK 06/M01 Q1035

Idő: 21:34 (20:34 UTC)

Előrejelzés

A jelentés 3 órával és 34 perccel ezelõtt készült, 17:00 UTC
Az előrejelzés 22-én 18 óra UTC és 23-én 03 óra UTC között érvényes
Különbözõ irányokból fújó szél 4 kt
Látótávolság 10 km, vagy több
felhőtlen 1500 m magasságban, és nincs gomolyfelhõ
Valószínűség 30% :
22-én 18 óra UTC és 22-én 20 óra UTC között ideiglenes
Északkeleti szél 10 kt

TAF: LEBG 221700Z 2218/2303 VRB04KT CAVOK PROB30 TEMPO 2218/2220 05010KT

Meteorológiai megfigyelések és előrejelzések több, mint 4000 repülőtéren (METAR és TAF jelentéseket).

A térképen piros és sárga pontok jelzik az elérhető meteorológiai állomásokat.

Mozgassa az egeret a pont fölött, hogy megjelenjen az állomás neve.

Azután kattintson az időjárási megfigyelések és előrejelzések megtekintéséhez.

A térkép megváltoztatása: kattintson a fekete keresztel jelölt zöld gombra ráközelítéshez, a vonallal jelölt zöld gombra távolításhoz, vagy a zöld nyilakra a szomszédos térképek eléréséhez.


METAR-TAF: